createdAt,value
2023-03-22T00:00:48.418Z,6.75
2023-03-22T00:03:52.700Z,5.97
2023-03-22T00:06:55.528Z,6.35
2023-03-22T00:09:58.360Z,7.05
2023-03-22T00:13:01.268Z,7.13
2023-03-22T00:16:05.453Z,6.15
2023-03-22T00:19:08.680Z,6.13
2023-03-22T00:22:11.786Z,6.55
2023-03-22T00:25:14.656Z,6.63
2023-03-22T00:28:18.292Z,7.63
2023-03-22T00:31:21.314Z,8.52
2023-03-22T00:34:24.334Z,7.95
2023-03-22T00:37:27.990Z,12.82
2023-03-22T00:40:31.103Z,16.10
2023-03-22T00:43:34.392Z,13.87
2023-03-22T00:46:37.678Z,16.35
2023-03-22T00:49:41.921Z,19.58
2023-03-22T00:52:45.082Z,16.20
2023-03-22T00:55:48.202Z,11.75
2023-03-22T00:58:51.474Z,10.07
2023-03-22T01:01:56.816Z,8.80
2023-03-22T01:05:00.378Z,8.88
2023-03-22T01:08:08.677Z,6.72
2023-03-22T01:11:20.583Z,7.07
2023-03-22T01:14:25.736Z,7.20
2023-03-22T01:17:28.784Z,7.78
2023-03-22T01:20:32.671Z,7.80
2023-03-22T01:23:35.933Z,9.30
2023-03-22T01:26:39.167Z,6.00
2023-03-22T01:29:42.321Z,6.80
2023-03-22T01:32:45.184Z,8.57
2023-03-22T01:35:48.441Z,8.35
2023-03-22T01:38:51.461Z,7.80
2023-03-22T01:41:54.827Z,7.70
2023-03-22T01:45:19.016Z,6.13
2023-03-22T01:48:28.258Z,6.97
2023-03-22T01:51:31.367Z,6.63
2023-03-22T01:54:47.548Z,6.78
2023-03-22T01:58:18.348Z,6.90
2023-03-22T02:01:30.528Z,6.37
2023-03-22T02:04:39.216Z,6.35
2023-03-22T02:07:44.276Z,6.85
2023-03-22T02:10:48.234Z,6.15
2023-03-22T02:14:28.799Z,6.53
2023-03-22T02:17:45.587Z,5.83
2023-03-22T02:21:02.483Z,6.40
2023-03-22T02:24:56.868Z,7.32
2023-03-22T02:28:21.667Z,7.88
2023-03-22T02:31:42.584Z,6.17
2023-03-22T02:35:34.257Z,4.13
2023-03-22T02:39:01.962Z,3.30
2023-03-22T02:42:20.307Z,4.55
2023-03-22T02:46:11.683Z,5.50
2023-03-22T02:49:46.169Z,5.70
2023-03-22T02:53:02.761Z,5.30
2023-03-22T02:56:08.623Z,5.00
2023-03-22T02:59:12.762Z,5.15
2023-03-22T03:02:19.963Z,5.60
2023-03-22T03:05:25.356Z,5.20
2023-03-22T03:08:29.380Z,4.93
2023-03-22T03:11:33.104Z,7.15
2023-03-22T03:14:36.929Z,5.80
2023-03-22T03:18:09.049Z,5.03
2023-03-22T03:21:23.746Z,4.90
2023-03-22T03:24:34.319Z,4.43
2023-03-22T03:27:51.675Z,4.45
2023-03-22T03:31:10.654Z,5.53
2023-03-22T03:34:34.807Z,4.15
2023-03-22T03:37:52.763Z,4.33
2023-03-22T03:41:06.258Z,4.57
2023-03-22T03:44:10.666Z,4.78
2023-03-22T03:47:14.362Z,4.95
2023-03-22T03:50:17.240Z,4.90
2023-03-22T03:53:20.259Z,4.53
2023-03-22T03:56:23.166Z,5.40
2023-03-22T03:59:27.198Z,10.10
2023-03-22T04:02:30.916Z,8.95
2023-03-22T04:05:35.885Z,8.02
2023-03-22T04:08:38.678Z,6.87
2023-03-22T04:11:42.646Z,6.50
2023-03-22T04:14:45.937Z,5.93
2023-03-22T04:17:57.200Z,5.65
2023-03-22T04:21:03.594Z,8.07
2023-03-22T04:24:13.857Z,7.90
2023-03-22T04:27:21.145Z,9.73
2023-03-22T04:30:36.358Z,9.90
2023-03-22T04:34:00.536Z,8.60
2023-03-22T04:37:13.921Z,9.27
2023-03-22T04:40:31.744Z,8.27
2023-03-22T04:43:41.778Z,7.00
2023-03-22T04:46:49.165Z,8.13
2023-03-22T04:49:52.564Z,17.83
2023-03-22T04:52:55.625Z,22.80
2023-03-22T04:55:58.816Z,27.43
2023-03-22T04:59:03.798Z,32.27
2023-03-22T05:02:06.973Z,37.67
2023-03-22T05:05:16.687Z,40.03
2023-03-22T05:08:22.376Z,35.90
2023-03-22T05:11:28.091Z,35.83
2023-03-22T05:14:57.925Z,35.77
2023-03-22T05:18:06.559Z,34.38
2023-03-22T05:21:16.028Z,33.17
2023-03-22T05:24:20.406Z,29.00
2023-03-22T05:27:31.730Z,30.13
2023-03-22T05:30:57.115Z,34.47
2023-03-22T05:34:23.230Z,35.35
2023-03-22T05:37:26.392Z,35.25
2023-03-22T05:40:32.223Z,32.15
2023-03-22T05:43:35.995Z,32.43
2023-03-22T05:46:39.466Z,25.20
2023-03-22T05:50:17.944Z,23.73
2023-03-22T05:53:21.071Z,22.15
2023-03-22T05:56:35.423Z,22.45
2023-03-22T05:59:42.561Z,17.80
2023-03-22T06:02:56.406Z,5.60
2023-03-22T06:06:01.070Z,5.43
2023-03-22T06:09:30.034Z,4.80
2023-03-22T06:12:34.713Z,5.10
2023-03-22T06:15:44.714Z,4.40
2023-03-22T06:18:54.277Z,4.77
2023-03-22T06:21:57.205Z,4.97
2023-03-22T06:25:02.604Z,5.97
2023-03-22T06:28:12.681Z,5.80
2023-03-22T06:31:23.093Z,5.55
2023-03-22T06:34:31.167Z,5.57
2023-03-22T06:37:34.186Z,5.60
2023-03-22T06:40:37.674Z,6.90
2023-03-22T06:43:40.724Z,6.53
2023-03-22T06:46:59.491Z,6.20
2023-03-22T06:50:18.278Z,6.50
2023-03-22T06:53:48.492Z,8.00
2023-03-22T06:56:51.418Z,7.28
2023-03-22T06:59:54.612Z,8.02
2023-03-22T07:03:02.173Z,8.73
2023-03-22T07:06:13.702Z,8.77
2023-03-22T07:09:27.089Z,8.52
2023-03-22T07:12:33.968Z,9.63
2023-03-22T07:15:42.567Z,9.23
2023-03-22T07:18:57.452Z,10.05
2023-03-22T07:22:00.356Z,10.37
2023-03-22T07:25:32.385Z,10.32
2023-03-22T07:28:50.120Z,10.07
2023-03-22T07:31:56.037Z,9.82
2023-03-22T07:35:02.956Z,10.13
2023-03-22T07:38:06.836Z,8.93
2023-03-22T07:41:10.403Z,10.05
2023-03-22T07:44:28.548Z,10.85
2023-03-22T07:47:50.412Z,11.13
2023-03-22T07:50:56.931Z,10.23
2023-03-22T07:54:02.337Z,10.70
2023-03-22T07:57:08.781Z,10.65
2023-03-22T08:00:20.459Z,10.98
2023-03-22T08:03:34.952Z,11.13
2023-03-22T08:06:49.370Z,11.13
2023-03-22T08:09:55.766Z,11.40
2023-03-22T08:13:04.231Z,11.38
2023-03-22T08:16:07.468Z,11.93
2023-03-22T08:19:11.749Z,12.00
2023-03-22T08:22:15.746Z,11.75
2023-03-22T08:25:37.443Z,12.07
2023-03-22T08:28:43.884Z,11.63
2023-03-22T08:31:47.710Z,11.07
2023-03-22T08:34:51.298Z,11.38
2023-03-22T08:37:57.329Z,11.65
2023-03-22T08:41:07.175Z,10.70
2023-03-22T08:44:10.518Z,11.07
2023-03-22T08:47:15.936Z,11.93
2023-03-22T08:50:20.114Z,11.82
2023-03-22T08:53:30.391Z,10.98
2023-03-22T08:56:53.245Z,10.27
2023-03-22T09:00:13.811Z,11.43
2023-03-22T09:03:42.456Z,11.23
2023-03-22T09:06:50.549Z,10.88
2023-03-22T09:10:01.211Z,11.48
2023-03-22T09:13:09.117Z,11.53
2023-03-22T09:16:17.034Z,11.45
2023-03-22T09:19:23.789Z,12.15
2023-03-22T09:22:27.277Z,12.30
2023-03-22T09:25:30.713Z,13.52
2023-03-22T09:28:34.760Z,13.30
2023-03-22T09:31:40.851Z,13.07
2023-03-22T09:34:58.969Z,12.93
2023-03-22T09:38:09.068Z,13.20
2023-03-22T09:41:21.718Z,13.55
2023-03-22T09:44:32.450Z,12.23
2023-03-22T09:47:45.211Z,12.10
2023-03-22T09:50:55.402Z,13.15
2023-03-22T09:53:58.825Z,13.50
2023-03-22T09:57:33.665Z,13.63
2023-03-22T10:00:43.305Z,13.40
2023-03-22T10:04:31.372Z,13.98
2023-03-22T10:08:06.005Z,13.85
2023-03-22T10:11:30.978Z,14.40
2023-03-22T10:14:47.004Z,18.98
2023-03-22T10:17:55.780Z,16.80
2023-03-22T10:21:09.458Z,15.60
2023-03-22T10:24:33.571Z,13.68
2023-03-22T10:27:38.193Z,12.15
2023-03-22T10:30:43.234Z,11.55
2023-03-22T10:34:11.749Z,11.30
2023-03-22T10:37:21.973Z,8.20
2023-03-22T10:40:32.218Z,9.07
2023-03-22T10:43:41.136Z,8.55
2023-03-22T10:46:45.682Z,8.55
2023-03-22T10:49:57.757Z,7.43
2023-03-22T10:53:25.034Z,6.22
2023-03-22T10:56:31.126Z,5.72
2023-03-22T10:59:56.155Z,6.05
2023-03-22T11:03:01.925Z,4.03
2023-03-22T11:06:24.308Z,4.40
2023-03-22T11:09:27.287Z,4.97
2023-03-22T11:12:30.353Z,5.00
2023-03-22T11:15:36.312Z,5.22
2023-03-22T11:18:42.059Z,4.40
2023-03-22T11:21:48.569Z,4.90
2023-03-22T11:24:53.409Z,4.60
2023-03-22T11:28:09.620Z,3.53
2023-03-22T11:31:15.288Z,3.08
2023-03-22T11:34:20.476Z,2.22
2023-03-22T11:37:23.399Z,1.70
2023-03-22T11:40:33.618Z,2.88
2023-03-22T11:43:48.573Z,4.07
2023-03-22T11:47:01.120Z,3.70
2023-03-22T11:53:49.385Z,3.73
2023-03-22T11:56:58.301Z,3.63
2023-03-22T12:00:08.365Z,3.67
2023-03-22T12:03:16.608Z,3.33
2023-03-22T12:06:29.930Z,3.03
2023-03-22T12:10:06.730Z,2.60
2023-03-22T12:13:39.116Z,2.85
2023-03-22T12:16:49.454Z,2.80
2023-03-22T12:20:00.650Z,2.53
2023-03-22T12:23:13.968Z,2.60
2023-03-22T12:26:32.894Z,2.60
2023-03-22T12:30:01.924Z,2.40
2023-03-22T12:33:30.866Z,2.40
2023-03-22T12:37:35.517Z,2.33
2023-03-22T12:41:09.570Z,2.50
2023-03-22T12:45:04.232Z,2.13
2023-03-22T12:48:20.240Z,1.70
2023-03-22T12:51:23.433Z,2.40
2023-03-22T12:54:27.765Z,2.25
2023-03-22T12:57:30.943Z,2.40
2023-03-22T13:00:49.684Z,2.10
2023-03-22T13:03:54.918Z,1.90
2023-03-22T13:07:09.612Z,2.20
2023-03-22T13:10:31.457Z,2.10
2023-03-22T13:13:42.902Z,1.90
2023-03-22T13:16:56.274Z,3.03
2023-03-22T13:20:15.006Z,2.17
2023-03-22T13:23:27.334Z,2.13
2023-03-22T13:26:47.460Z,1.92
2023-03-22T13:29:54.419Z,4.90
2023-03-22T13:33:09.087Z,1.90
2023-03-22T13:36:25.872Z,2.10
2023-03-22T13:39:36.462Z,1.77
2023-03-22T13:42:43.406Z,2.22
2023-03-22T13:46:04.297Z,2.30
2023-03-22T13:49:28.920Z,1.80
2023-03-22T13:52:40.690Z,1.50
2023-03-22T13:55:46.524Z,1.80
2023-03-22T13:58:53.101Z,2.05
2023-03-22T14:02:23.656Z,1.92
2023-03-22T14:05:32.361Z,2.37
2023-03-22T14:08:37.286Z,1.90
2023-03-22T14:11:47.624Z,1.70
2023-03-22T14:15:01.065Z,1.73
2023-03-22T14:18:29.162Z,1.73
